Time;durP1;ratioP1;P1;durP2;ratioP2;P2;SDS_P1;SDS_P2;PMS_P1;PMS_P2;Temp;Humidity;BMP_temperature;BMP_pressure;BME280_temperature;BME280_humidity;BME280_pressure;Samples;Min_cycle;Max_cycle;Signal;HPM_P1;HPM_P2
2023/07/19 00:00:39;;;;;;;5.15;2.60;;;17.90;99.90;;;;;;6249564;22;20015;-85
2023/07/19 00:03:05;;;;;;;6.25;2.70;;;17.80;99.90;;;;;;6248015;22;20039;-85
2023/07/19 00:05:31;;;;;;;7.05;2.85;;;17.80;99.90;;;;;;6302262;22;20018;-85
2023/07/19 00:07:57;;;;;;;6.93;3.25;;;17.80;99.90;;;;;;6274614;22;20023;-85
2023/07/19 00:10:23;;;;;;;8.38;3.50;;;17.80;99.90;;;;;;6274234;22;20567;-85
2023/07/19 00:12:49;;;;;;;5.80;2.65;;;17.80;99.90;;;;;;6302091;22;20326;-85
2023/07/19 00:15:16;;;;;;;5.80;3.15;;;17.80;99.90;;;;;;6248895;22;20097;-85
2023/07/19 00:17:44;;;;;;;6.05;3.22;;;17.70;99.90;;;;;;6273168;22;20050;-85
2023/07/19 00:20:11;;;;;;;5.90;3.20;;;17.70;99.90;;;;;;6302013;22;20019;-85
2023/07/19 00:22:37;;;;;;;7.32;3.20;;;17.70;99.90;;;;;;6301816;22;20034;-84
2023/07/19 00:25:03;;;;;;;5.38;2.90;;;17.70;99.90;;;;;;6274039;22;20498;-85
2023/07/19 00:27:29;;;;;;;5.90;3.47;;;17.70;99.90;;;;;;6275408;22;20016;-84
2023/07/19 00:29:58;;;;;;;4.70;2.42;;;17.70;99.90;;;;;;6300944;22;20400;-85
2023/07/19 00:32:24;;;;;;;5.28;2.47;;;17.70;99.90;;;;;;6299791;22;20059;-84
2023/07/19 00:34:50;;;;;;;5.20;3.30;;;17.70;99.90;;;;;;6274620;22;20011;-84
2023/07/19 00:37:16;;;;;;;8.10;2.85;;;17.60;99.90;;;;;;6274228;22;20037;-84
2023/07/19 00:39:42;;;;;;;5.45;2.92;;;17.60;99.90;;;;;;6302476;22;20019;-85
2023/07/19 00:42:11;;;;;;;5.38;2.70;;;17.60;99.90;;;;;;6301563;22;20027;-85
2023/07/19 00:44:36;;;;;;;7.55;3.63;;;17.60;99.90;;;;;;6248628;22;20018;-85
2023/07/19 00:47:03;;;;;;;10.60;3.83;;;17.60;99.90;;;;;;6274415;22;20011;-85
2023/07/19 00:49:31;;;;;;;6.95;3.45;;;17.60;99.90;;;;;;6301734;22;20330;-85
2023/07/19 00:51:59;;;;;;;4.93;2.25;;;17.60;99.90;;;;;;6302326;22;20007;-84
2023/07/19 00:54:26;;;;;;;8.30;3.20;;;17.60;99.90;;;;;;6249261;22;20436;-85
2023/07/19 00:56:52;;;;;;;4.35;2.30;;;17.50;99.90;;;;;;6276391;22;20008;-85
2023/07/19 00:59:20;;;;;;;5.05;2.35;;;17.50;99.90;;;;;;6303640;22;20442;-85
2023/07/19 01:01:46;;;;;;;4.32;2.58;;;17.50;99.90;;;;;;6276543;22;20019;-85
2023/07/19 01:04:12;;;;;;;5.55;2.83;;;17.50;99.90;;;;;;6250719;22;20021;-85
2023/07/19 01:06:38;;;;;;;8.50;3.38;;;17.50;99.90;;;;;;6251366;22;20109;-85
2023/07/19 01:09:04;;;;;;;7.53;3.25;;;17.50;99.90;;;;;;6303744;22;20043;-85
2023/07/19 01:11:30;;;;;;;6.10;2.83;;;17.60;99.90;;;;;;6304502;22;20078;-85
2023/07/19 01:13:56;;;;;;;7.05;3.17;;;17.50;99.90;;;;;;6303065;22;20043;-85
2023/07/19 01:16:22;;;;;;;7.47;3.13;;;17.50;99.90;;;;;;6276648;22;20020;-85
2023/07/19 01:18:48;;;;;;;7.55;3.30;;;17.50;99.90;;;;;;6302816;22;20011;-85
2023/07/19 01:21:14;;;;;;;6.75;3.25;;;17.50;99.90;;;;;;6302331;22;20026;-85
2023/07/19 01:23:40;;;;;;;6.40;3.70;;;17.40;99.90;;;;;;6303788;22;20027;-85
2023/07/19 01:26:06;;;;;;;5.22;2.67;;;17.40;99.90;;;;;;6275736;22;20461;-85
2023/07/19 01:28:32;;;;;;;6.05;2.85;;;17.40;99.90;;;;;;6250203;22;20029;-85
2023/07/19 01:31:03;;;;;;;6.82;2.67;;;17.40;99.90;;;;;;6303172;22;20050;-85
2023/07/19 01:33:29;;;;;;;4.38;2.42;;;17.40;99.90;;;;;;6276490;22;20445;-85
2023/07/19 01:35:54;;;;;;;5.50;3.03;;;17.40;99.90;;;;;;6276564;22;20130;-85
2023/07/19 01:38:20;;;;;;;6.00;3.15;;;17.40;99.90;;;;;;6275779;22;20011;-84
2023/07/19 01:40:46;;;;;;;6.25;2.88;;;17.40;99.90;;;;;;6303372;22;20019;-84
2023/07/19 01:43:12;;;;;;;5.47;3.20;;;17.40;99.90;;;;;;6302731;22;20019;-84
2023/07/19 01:45:37;;;;;;;8.35;3.95;;;17.40;99.90;;;;;;6276445;22;20023;-84
2023/07/19 01:48:03;;;;;;;7.80;3.47;;;17.30;99.90;;;;;;6275328;22;20054;-84
2023/07/19 01:50:29;;;;;;;5.10;3.20;;;17.20;99.90;;;;;;6303574;22;20185;-85
2023/07/19 01:52:55;;;;;;;6.90;3.70;;;17.20;99.90;;;;;;6302688;22;20007;-84
2023/07/19 01:55:21;;;;;;;9.30;4.07;;;17.20;99.90;;;;;;6275485;22;20041;-85
2023/07/19 01:57:48;;;;;;;6.07;2.53;;;17.20;99.90;;;;;;6275429;22;20426;-85
2023/07/19 02:00:14;;;;;;;8.60;4.15;;;17.20;99.90;;;;;;6249113;22;20042;-85
2023/07/19 02:02:40;;;;;;;9.10;3.35;;;17.20;99.90;;;;;;6274479;22;20363;-85
2023/07/19 02:05:17;;;;;;;8.27;3.10;;;17.20;99.90;;;;;;6275100;22;20039;-85
2023/07/19 02:07:44;;;;;;;6.60;3.20;;;17.10;99.90;;;;;;6276057;22;20011;-85
2023/07/19 02:10:11;;;;;;;5.38;2.97;;;17.10;99.90;;;;;;6275101;22;20069;-85
2023/07/19 02:12:37;;;;;;;6.32;3.15;;;17.10;99.90;;;;;;6275360;22;20007;-85
2023/07/19 02:15:03;;;;;;;6.50;3.25;;;17.10;99.90;;;;;;6275810;22;20015;-85
2023/07/19 02:17:28;;;;;;;7.10;2.92;;;17.10;99.90;;;;;;6275688;22;20011;-85
2023/07/19 02:19:54;;;;;;;7.55;3.83;;;17.10;99.90;;;;;;6275491;22;20019;-85
2023/07/19 02:22:20;;;;;;;6.18;3.50;;;17.10;99.90;;;;;;6301521;22;20022;-85
2023/07/19 02:24:45;;;;;;;5.72;3.30;;;17.10;99.90;;;;;;6303389;22;20022;-84
2023/07/19 02:27:12;;;;;;;10.00;3.92;;;17.10;99.90;;;;;;6249508;22;20019;-85
2023/07/19 02:29:38;;;;;;;7.80;4.03;;;17.00;99.90;;;;;;6303226;22;20592;-85
2023/07/19 02:32:04;;;;;;;9.88;4.10;;;17.00;99.90;;;;;;6302169;22;20007;-84
2023/07/19 02:34:30;;;;;;;8.23;3.22;;;17.00;99.90;;;;;;6302379;22;20014;-85
2023/07/19 02:36:57;;;;;;;6.70;3.33;;;17.00;99.90;;;;;;6275664;22;20018;-85
2023/07/19 02:39:26;;;;;;;5.15;3.15;;;17.00;99.90;;;;;;6303446;22;20023;-85
2023/07/19 02:41:52;;;;;;;7.22;4.13;;;16.90;99.90;;;;;;6250033;22;20015;-85
2023/07/19 02:44:18;;;;;;;10.60;4.47;;;16.90;99.90;;;;;;6276432;22;20023;-85
2023/07/19 02:46:44;;;;;;;6.28;3.33;;;16.90;99.90;;;;;;6304110;22;20240;-85
2023/07/19 02:49:11;;;;;;;7.22;4.20;;;16.90;99.90;;;;;;6250263;22;20023;-86
2023/07/19 02:51:40;;;;;;;8.35;3.78;;;16.90;99.90;;;;;;6302666;22;20438;-85
2023/07/19 02:54:05;;;;;;;7.90;4.45;;;16.90;99.90;;;;;;6302434;22;20041;-85
2023/07/19 02:56:31;;;;;;;7.50;3.42;;;16.90;99.90;;;;;;6274234;22;20011;-84
2023/07/19 02:58:57;;;;;;;5.30;3.30;;;16.80;99.90;;;;;;6274927;22;20145;-85
2023/07/19 03:01:22;;;;;;;9.10;4.07;;;16.90;99.90;;;;;;6302635;22;20047;-85
2023/07/19 03:03:49;;;;;;;4.85;2.72;;;16.90;99.90;;;;;;6275641;22;20019;-85
2023/07/19 03:06:14;;;;;;;6.07;4.18;;;16.90;99.90;;;;;;6274695;22;20019;-85
2023/07/19 03:08:40;;;;;;;6.70;3.70;;;16.90;99.90;;;;;;6302400;22;20042;-85
2023/07/19 03:11:08;;;;;;;9.32;3.45;;;16.90;99.90;;;;;;6274550;22;20442;-85
2023/07/19 03:13:34;;;;;;;6.97;3.67;;;16.90;99.90;;;;;;6275386;22;20011;-86
2023/07/19 03:16:00;;;;;;;8.05;3.95;;;16.90;99.90;;;;;;6303854;22;20034;-85
2023/07/19 03:18:26;;;;;;;8.48;4.18;;;16.90;99.90;;;;;;6276198;22;20426;-85
2023/07/19 03:20:59;;;;;;;7.22;4.05;;;16.90;99.90;;;;;;6275539;22;20023;-85
2023/07/19 03:23:26;;;;;;;7.87;4.40;;;16.90;99.90;;;;;;6302705;22;20011;-85
2023/07/19 03:25:53;;;;;;;7.78;3.85;;;16.90;99.90;;;;;;6273646;22;20019;-85
2023/07/19 03:28:19;;;;;;;6.50;4.13;;;16.90;99.90;;;;;;6302753;22;20134;-86
2023/07/19 03:30:44;;;;;;;7.80;4.70;;;16.90;99.90;;;;;;6302726;22;20019;-86
2023/07/19 03:33:10;;;;;;;8.13;4.32;;;16.80;99.90;;;;;;6274631;22;20346;-85
2023/07/19 03:35:36;;;;;;;5.82;3.25;;;16.80;99.90;;;;;;6274898;22;20434;-85
2023/07/19 03:38:02;;;;;;;6.75;3.13;;;16.80;99.90;;;;;;6273969;22;20012;-85
2023/07/19 03:40:28;;;;;;;6.55;3.72;;;16.80;99.90;;;;;;6300581;22;20141;-85
2023/07/19 03:42:54;;;;;;;9.20;4.35;;;16.80;99.90;;;;;;6301834;22;20058;-85
2023/07/19 03:45:19;;;;;;;9.98;5.63;;;16.80;99.90;;;;;;6301045;22;20441;-85
2023/07/19 03:47:45;;;;;;;7.68;4.68;;;16.80;99.90;;;;;;6273946;22;20034;-85
2023/07/19 03:50:11;;;;;;;10.02;5.00;;;16.80;99.90;;;;;;6301962;22;20438;-85
2023/07/19 03:52:36;;;;;;;11.98;6.25;;;16.80;99.90;;;;;;6248862;22;20161;-85
2023/07/19 03:55:03;;;;;;;10.90;6.10;;;16.80;99.90;;;;;;6272704;22;20258;-86
2023/07/19 03:57:29;;;;;;;6.70;4.35;;;16.70;99.90;;;;;;6274806;22;20070;-85
2023/07/19 03:59:55;;;;;;;10.38;5.72;;;16.80;99.90;;;;;;6301700;22;20034;-85
2023/07/19 04:02:22;;;;;;;10.38;6.70;;;16.70;99.90;;;;;;6302361;22;20011;-85
2023/07/19 04:04:49;;;;;;;6.10;4.25;;;16.70;99.90;;;;;;6301892;22;20018;-85
2023/07/19 04:07:14;;;;;;;4.68;3.00;;;16.70;99.90;;;;;;6301322;22;20082;-85
2023/07/19 04:09:40;;;;;;;10.82;5.95;;;16.70;99.90;;;;;;6273724;22;20047;-86
2023/07/19 04:12:06;;;;;;;9.98;6.15;;;16.70;99.90;;;;;;6274786;22;20011;-86
2023/07/19 04:14:32;;;;;;;9.55;6.07;;;16.70;99.90;;;;;;6274973;22;20015;-86
2023/07/19 04:16:58;;;;;;;7.72;4.93;;;16.70;99.90;;;;;;6249023;22;20072;-85
2023/07/19 04:19:23;;;;;;;7.80;5.28;;;16.70;99.90;;;;;;6275375;22;20333;-86
2023/07/19 04:21:49;;;;;;;9.95;6.22;;;16.80;99.90;;;;;;6302304;22;20011;-86
2023/07/19 04:24:15;;;;;;;8.13;5.50;;;16.80;99.90;;;;;;6301179;22;20022;-86
2023/07/19 04:26:40;;;;;;;6.43;4.53;;;16.80;99.90;;;;;;6302283;22;20086;-86
2023/07/19 04:29:06;;;;;;;10.27;6.32;;;16.80;99.90;;;;;;6302035;22;20008;-86
2023/07/19 04:31:32;;;;;;;11.82;6.45;;;16.80;99.90;;;;;;6276652;22;20023;-85
2023/07/19 04:33:57;;;;;;;12.10;6.75;;;16.80;99.90;;;;;;6304124;22;20425;-85
2023/07/19 04:36:23;;;;;;;10.57;6.03;;;16.80;99.90;;;;;;6275349;22;20107;-85
2023/07/19 04:38:49;;;;;;;10.93;5.70;;;16.80;99.90;;;;;;6275535;22;20011;-85
2023/07/19 04:41:14;;;;;;;9.05;6.35;;;16.80;99.90;;;;;;6303711;22;20027;-85
2023/07/19 04:43:40;;;;;;;12.27;7.53;;;16.90;99.90;;;;;;6304347;22;20018;-86
2023/07/19 04:46:06;;;;;;;10.50;6.40;;;16.90;99.90;;;;;;6275731;22;20653;-86
2023/07/19 04:48:31;;;;;;;10.10;6.43;;;16.90;99.90;;;;;;6277141;22;20018;-86
2023/07/19 04:50:58;;;;;;;9.48;6.35;;;16.90;99.90;;;;;;6303764;22;20246;-86
2023/07/19 04:53:25;;;;;;;7.35;4.53;;;16.90;99.90;;;;;;6302712;22;20011;-85
2023/07/19 04:55:52;;;;;;;12.20;6.25;;;16.90;99.90;;;;;;6249680;22;20012;-85
2023/07/19 04:58:18;;;;;;;6.80;4.40;;;17.00;99.90;;;;;;6302631;22;20019;-86
2023/07/19 05:00:44;;;;;;;9.95;7.07;;;17.00;99.90;;;;;;6303158;22;20015;-85
2023/07/19 05:03:11;;;;;;;8.65;4.80;;;17.00;99.90;;;;;;6275287;22;20347;-86
2023/07/19 05:05:37;;;;;;;9.93;4.88;;;17.10;99.90;;;;;;6276642;22;20038;-86
2023/07/19 05:08:04;;;;;;;11.52;6.40;;;17.10;99.90;;;;;;6303599;22;20026;-86
2023/07/19 05:10:30;;;;;;;9.65;6.80;;;17.10;99.90;;;;;;6277159;22;20072;-87
2023/07/19 05:12:56;;;;;;;13.00;7.70;;;17.10;99.90;;;;;;6276622;22;20318;-88
2023/07/19 05:15:22;;;;;;;10.40;6.93;;;17.10;99.90;;;;;;6277049;22;20019;-86
2023/07/19 05:17:48;;;;;;;14.65;7.28;;;17.20;99.90;;;;;;6276192;22;20026;-86
2023/07/19 05:20:13;;;;;;;10.73;6.80;;;17.20;99.90;;;;;;6305043;22;20015;-89
2023/07/19 05:22:39;;;;;;;9.85;5.65;;;17.20;99.90;;;;;;6305530;22;20474;-87
2023/07/19 05:25:05;;;;;;;10.63;5.13;;;17.20;99.90;;;;;;6276146;22;20469;-87
2023/07/19 05:27:31;;;;;;;13.70;7.18;;;17.20;99.90;;;;;;6277531;22;20011;-85
2023/07/19 05:29:57;;;;;;;12.20;6.05;;;17.20;99.90;;;;;;6303998;22;20011;-87
2023/07/19 05:32:22;;;;;;;7.55;5.00;;;17.30;99.90;;;;;;6304844;22;20011;-86
2023/07/19 05:34:49;;;;;;;8.25;5.03;;;17.30;99.90;;;;;;6276916;22;20441;-86
2023/07/19 05:37:14;;;;;;;10.82;6.45;;;17.30;99.90;;;;;;6276492;22;20087;-86
2023/07/19 05:39:40;;;;;;;11.65;6.63;;;17.30;99.90;;;;;;6275537;22;20471;-86
2023/07/19 05:42:06;;;;;;;8.88;5.10;;;17.30;99.90;;;;;;6277105;22;20029;-87
2023/07/19 05:44:32;;;;;;;10.23;5.80;;;17.30;99.90;;;;;;6303894;22;20050;-86
2023/07/19 05:46:58;;;;;;;12.45;7.25;;;17.40;99.90;;;;;;6280697;22;20352;-89
2023/07/19 05:49:24;;;;;;;10.35;6.35;;;17.40;99.90;;;;;;6279014;22;20011;-87
2023/07/19 05:51:50;;;;;;;9.15;5.78;;;17.40;99.90;;;;;;6276428;22;20031;-86
2023/07/19 05:54:16;;;;;;;9.80;6.20;;;17.40;99.90;;;;;;6250845;22;20445;-88
2023/07/19 05:56:42;;;;;;;8.07;5.30;;;17.40;99.90;;;;;;6276065;22;20071;-84
2023/07/19 05:59:08;;;;;;;8.13;4.68;;;17.40;99.90;;;;;;6275536;22;20019;-85
2023/07/19 06:01:34;;;;;;;9.98;6.20;;;17.40;99.90;;;;;;6248536;22;20350;-83
2023/07/19 06:04:01;;;;;;;9.60;5.20;;;17.40;99.90;;;;;;6249416;22;20018;-84
2023/07/19 06:06:26;;;;;;;9.30;5.35;;;17.40;99.90;;;;;;6272919;22;20015;-85
2023/07/19 06:08:52;;;;;;;7.13;4.55;;;17.40;99.90;;;;;;6273447;22;20781;-83
2023/07/19 06:11:18;;;;;;;13.10;6.80;;;17.40;99.90;;;;;;6300536;22;20015;-83
2023/07/19 06:13:44;;;;;;;9.70;4.95;;;17.40;99.90;;;;;;6250411;22;20019;-83
2023/07/19 06:16:10;;;;;;;11.20;6.60;;;17.40;99.90;;;;;;6274343;22;20014;-83
2023/07/19 06:18:35;;;;;;;13.55;6.78;;;17.30;99.90;;;;;;6275391;22;20003;-83
2023/07/19 06:21:01;;;;;;;9.10;5.70;;;17.30;99.90;;;;;;6275674;22;20012;-83
2023/07/19 06:23:27;;;;;;;7.63;5.20;;;17.40;99.90;;;;;;6274596;22;20019;-82
2023/07/19 06:25:53;;;;;;;10.45;6.07;;;17.40;99.90;;;;;;6250356;22;20361;-82
2023/07/19 06:28:18;;;;;;;11.20;6.20;;;17.40;99.90;;;;;;6302608;22;20015;-83
2023/07/19 06:30:44;;;;;;;10.18;5.53;;;17.40;99.90;;;;;;6249838;22;20435;-83
2023/07/19 06:33:10;;;;;;;12.13;6.65;;;17.40;99.90;;;;;;6274386;22;20015;-83
2023/07/19 06:35:35;;;;;;;9.75;5.60;;;17.40;99.90;;;;;;6275512;22;20092;-83
2023/07/19 06:38:01;;;;;;;8.60;5.28;;;17.40;99.90;;;;;;6249152;22;20337;-83
2023/07/19 06:40:27;;;;;;;8.82;4.15;;;17.40;99.90;;;;;;6249913;22;20018;-83
2023/07/19 06:42:53;;;;;;;10.55;5.70;;;17.40;99.90;;;;;;6249463;22;20394;-83
2023/07/19 06:45:19;;;;;;;8.63;5.97;;;17.50;99.90;;;;;;6275295;22;20496;-83
2023/07/19 06:47:45;;;;;;;8.23;4.70;;;17.40;99.90;;;;;;6301254;22;20057;-83
2023/07/19 06:50:11;;;;;;;8.57;4.63;;;17.40;99.90;;;;;;6275107;22;20014;-83
2023/07/19 06:52:40;;;;;;;8.45;4.68;;;17.40;99.90;;;;;;6300426;22;20488;-83
2023/07/19 06:55:06;;;;;;;7.60;4.22;;;17.40;99.90;;;;;;6248508;22;20015;-84
2023/07/19 06:57:32;;;;;;;6.50;4.53;;;17.40;99.90;;;;;;6275188;22;20057;-83
2023/07/19 06:59:58;;;;;;;9.18;5.10;;;17.40;99.90;;;;;;6274326;22;20025;-83
2023/07/19 07:02:24;;;;;;;9.02;5.07;;;17.50;99.90;;;;;;6273560;22;20392;-83
2023/07/19 07:04:52;;;;;;;7.75;4.28;;;17.50;99.90;;;;;;6276024;22;20026;-83
2023/07/19 07:07:19;;;;;;;9.77;4.32;;;17.50;99.90;;;;;;6276023;22;20084;-84
2023/07/19 07:09:48;;;;;;;11.02;5.07;;;17.60;99.90;;;;;;6249377;22;20026;-84
2023/07/19 07:12:13;;;;;;;8.05;4.45;;;17.60;99.90;;;;;;6274400;22;20011;-84
2023/07/19 07:14:42;;;;;;;10.57;4.65;;;17.60;99.90;;;;;;6275171;22;20053;-84
2023/07/19 07:17:09;;;;;;;9.48;4.20;;;17.60;99.90;;;;;;6248736;22;20023;-84
2023/07/19 07:19:37;;;;;;;7.72;4.60;;;17.70;99.90;;;;;;6249539;22;20015;-84
2023/07/19 07:22:02;;;;;;;8.43;4.88;;;17.70;99.90;;;;;;6274109;22;20030;-84
2023/07/19 07:24:28;;;;;;;6.80;4.00;;;17.80;99.90;;;;;;6274476;22;20046;-83
2023/07/19 07:26:54;;;;;;;6.95;4.10;;;17.80;99.90;;;;;;6274373;22;20053;-84
2023/07/19 07:29:19;;;;;;;9.65;4.10;;;17.80;99.90;;;;;;6273914;22;20016;-82
2023/07/19 07:31:45;;;;;;;10.25;3.60;;;17.80;99.90;;;;;;6274306;22;20338;-84
2023/07/19 07:34:14;;;;;;;5.82;3.45;;;17.80;99.90;;;;;;6274513;22;20018;-84
2023/07/19 07:36:41;;;;;;;6.20;3.13;;;17.80;99.90;;;;;;6303595;22;20015;-84
2023/07/19 07:39:06;;;;;;;8.25;3.40;;;17.80;99.90;;;;;;6303422;22;20015;-83
2023/07/19 07:41:33;;;;;;;8.20;3.20;;;17.90;99.90;;;;;;6275407;22;20019;-84
2023/07/19 07:43:59;;;;;;;5.65;2.60;;;17.90;99.90;;;;;;6276036;22;20023;-84
2023/07/19 07:46:25;;;;;;;4.93;2.47;;;17.90;99.90;;;;;;6302925;22;20068;-83
2023/07/19 07:48:59;;;;;;;7.35;3.20;;;18.00;99.90;;;;;;6304331;22;20045;-84
2023/07/19 07:51:25;;;;;;;7.28;2.83;;;18.00;99.90;;;;;;6276703;22;20058;-82
2023/07/19 07:53:51;;;;;;;6.55;3.05;;;17.90;99.90;;;;;;6304864;22;20007;-83
2023/07/19 07:56:17;;;;;;;6.22;2.88;;;18.10;99.90;;;;;;6275689;22;20346;-83
2023/07/19 07:58:42;;;;;;;4.82;2.10;;;18.30;99.90;;;;;;6276395;22;20270;-83
2023/07/19 08:01:08;;;;;;;6.25;2.90;;;18.30;99.90;;;;;;6303483;22;20517;-83
2023/07/19 08:03:34;;;;;;;7.93;2.33;;;18.50;99.90;;;;;;6251590;22;20495;-83
2023/07/19 08:06:00;;;;;;;4.35;1.95;;;18.50;99.90;;;;;;6274872;22;20098;-83
2023/07/19 08:08:26;;;;;;;7.13;2.08;;;18.60;99.90;;;;;;6275342;22;20054;-83
2023/07/19 08:10:52;;;;;;;3.40;1.77;;;18.70;99.90;;;;;;6275198;22;20015;-83
2023/07/19 08:13:18;;;;;;;3.33;1.58;;;18.70;99.90;;;;;;6275309;22;20019;-83
2023/07/19 08:15:43;;;;;;;3.60;1.67;;;18.70;99.90;;;;;;6248864;22;20383;-83
2023/07/19 08:18:09;;;;;;;7.40;1.80;;;18.80;99.90;;;;;;6274472;22;20053;-83
2023/07/19 08:20:35;;;;;;;4.45;1.60;;;18.90;99.90;;;;;;6301107;22;20115;-83
2023/07/19 08:23:01;;;;;;;4.07;1.52;;;18.90;99.90;;;;;;6302542;22;20107;-83
2023/07/19 08:25:27;;;;;;;5.35;1.77;;;18.90;99.90;;;;;;6274694;22;20056;-83
2023/07/19 08:27:55;;;;;;;3.45;1.48;;;19.00;99.90;;;;;;6249109;22;20372;-84
2023/07/19 08:30:21;;;;;;;4.85;1.33;;;19.00;99.90;;;;;;6274474;22;20011;-84
2023/07/19 08:32:47;;;;;;;5.15;1.60;;;19.10;99.90;;;;;;6274619;22;20061;-84
2023/07/19 08:35:17;;;;;;;3.90;1.30;;;19.10;99.90;;;;;;6302027;22;20015;-84
2023/07/19 08:37:44;;;;;;;3.67;1.35;;;19.00;99.90;;;;;;6274977;22;20063;-84
2023/07/19 08:40:14;;;;;;;4.35;1.05;;;19.10;99.90;;;;;;6301713;22;20016;-82
2023/07/19 08:42:42;;;;;;;3.70;1.25;;;19.10;99.90;;;;;;6302293;22;20027;-83
2023/07/19 08:45:08;;;;;;;4.80;1.40;;;19.20;99.90;;;;;;6273785;22;20015;-83
2023/07/19 08:47:37;;;;;;;2.70;1.25;;;19.10;99.90;;;;;;6302514;22;20008;-83
2023/07/19 08:50:07;;;;;;;4.20;1.10;;;19.10;99.90;;;;;;6301444;22;20015;-83
2023/07/19 08:52:34;;;;;;;2.67;1.02;;;19.00;99.90;;;;;;6302587;22;20015;-83
2023/07/19 08:55:00;;;;;;;4.72;1.10;;;19.00;99.90;;;;;;6274212;22;20050;-84
2023/07/19 08:57:27;;;;;;;4.18;1.10;;;18.90;99.90;;;;;;6301578;22;20018;-84
2023/07/19 08:59:53;;;;;;;3.63;1.17;;;18.80;99.90;;;;;;6273943;22;20054;-83
2023/07/19 09:02:18;;;;;;;5.80;1.17;;;19.00;99.90;;;;;;6274405;22;20023;-89
2023/07/19 09:05:06;;;;;;;3.28;0.88;;;19.00;99.90;;;;;;6273377;22;20659;-82
2023/07/19 09:07:39;;;;;;;2.83;1.00;;;19.00;99.90;;;;;;6275454;22;20521;-84
2023/07/19 09:10:07;;;;;;;5.38;1.25;;;19.10;99.90;;;;;;6274573;22;20011;-84
2023/07/19 09:12:40;;;;;;;4.90;1.02;;;19.20;99.90;;;;;;6272770;22;20015;-84
2023/07/19 09:15:08;;;;;;;6.82;1.30;;;19.20;99.90;;;;;;6301982;22;20003;-84
2023/07/19 09:17:47;;;;;;;2.92;0.90;;;19.30;99.90;;;;;;6250557;22;20018;-85
2023/07/19 09:20:14;;;;;;;4.95;1.35;;;19.30;99.90;;;;;;6275794;22;20485;-84
2023/07/19 09:22:41;;;;;;;3.65;1.30;;;19.50;99.90;;;;;;6276367;22;20011;-85
2023/07/19 09:25:09;;;;;;;4.38;1.08;;;19.60;99.90;;;;;;6250327;22;20050;-85
2023/07/19 09:27:35;;;;;;;2.83;1.08;;;19.70;99.90;;;;;;6275690;22;20015;-85
2023/07/19 09:30:03;;;;;;;4.25;0.98;;;19.90;99.90;;;;;;6249768;22;20014;-85
2023/07/19 09:32:31;;;;;;;4.65;1.00;;;20.10;99.90;;;;;;6250807;22;20019;-85
2023/07/19 09:35:03;;;;;;;3.95;1.00;;;20.30;99.90;;;;;;6274603;22;20098;-85
2023/07/19 09:37:29;;;;;;;2.05;0.93;;;20.40;99.90;;;;;;6250608;22;20019;-85
2023/07/19 09:39:55;;;;;;;3.55;0.77;;;20.60;99.90;;;;;;6275821;22;20434;-85
2023/07/19 09:42:21;;;;;;;3.40;0.88;;;20.70;99.90;;;;;;6276105;22;20110;-85
2023/07/19 09:44:48;;;;;;;3.28;0.80;;;20.90;99.90;;;;;;6277052;22;20379;-85
2023/07/19 09:47:16;;;;;;;3.35;0.70;;;20.90;99.90;;;;;;6277179;22;20371;-87
2023/07/19 09:49:43;;;;;;;3.15;0.85;;;21.10;99.90;;;;;;6275839;22;20014;-86
2023/07/19 09:52:16;;;;;;;3.13;0.77;;;21.20;99.90;;;;;;6276278;22;20015;-85
2023/07/19 09:54:43;;;;;;;2.55;0.85;;;21.30;99.90;;;;;;6250573;22;20022;-85
2023/07/19 09:57:09;;;;;;;4.47;0.88;;;21.20;99.90;;;;;;6275642;22;20011;-85
2023/07/19 09:59:35;;;;;;;4.10;0.70;;;21.10;99.90;;;;;;6303848;22;20018;-84
2023/07/19 10:02:02;;;;;;;3.25;0.98;;;21.10;99.90;;;;;;6303778;22;20015;-84
2023/07/19 10:04:38;;;;;;;2.83;0.80;;;20.90;99.90;;;;;;6250568;22;20015;-84
2023/07/19 10:07:08;;;;;;;2.65;0.80;;;20.80;99.90;;;;;;6274422;22;20050;-83
2023/07/19 10:09:45;;;;;;;4.97;1.02;;;20.60;99.90;;;;;;6250655;22;20015;-83
2023/07/19 10:12:16;;;;;;;5.15;0.93;;;20.60;99.90;;;;;;6249339;22;20054;-83
2023/07/19 10:15:04;;;;;;;3.78;1.00;;;20.50;99.90;;;;;;6303314;22;20064;-83
2023/07/19 10:17:40;;;;;;;2.53;1.10;;;20.50;99.90;;;;;;6302722;22;20011;-83
2023/07/19 10:20:08;;;;;;;4.63;1.23;;;20.50;99.90;;;;;;6274630;22;20098;-83
2023/07/19 10:23:04;;;;;;;5.15;1.27;;;20.60;99.90;;;;;;6276095;22;20022;-83
2023/07/19 10:25:38;;;;;;;3.20;0.98;;;20.70;99.90;;;;;;6303277;22;20030;-83
2023/07/19 10:28:05;;;;;;;5.43;1.00;;;20.90;99.90;;;;;;6275451;22;20027;-83
2023/07/19 10:30:58;;;;;;;3.25;0.90;;;21.20;99.90;;;;;;6275387;22;20011;-83
2023/07/19 10:33:28;;;;;;;3.17;1.10;;;21.30;99.90;;;;;;6275604;22;20059;-83
2023/07/19 10:35:56;;;;;;;5.60;1.20;;;21.30;99.90;;;;;;6275763;22;20038;-83
2023/07/19 10:38:25;;;;;;;5.32;1.00;;;21.30;99.90;;;;;;6275701;22;20026;-83
2023/07/19 10:40:56;;;;;;;4.45;1.40;;;21.10;99.90;;;;;;6302154;22;20478;-83
2023/07/19 10:43:23;;;;;;;3.50;1.30;;;20.90;99.90;;;;;;6276508;22;20015;-83
2023/07/19 10:45:59;;;;;;;7.45;1.60;;;20.80;99.90;;;;;;6275902;22;20384;-83
2023/07/19 10:48:30;;;;;;;4.97;1.30;;;20.70;99.90;;;;;;6274408;22;20019;-83
2023/07/19 10:51:00;;;;;;;6.05;1.50;;;20.60;99.90;;;;;;6302434;22;20011;-83
2023/07/19 10:53:27;;;;;;;4.35;1.50;;;20.60;99.90;;;;;;6302269;22;20068;-84
2023/07/19 10:55:58;;;;;;;4.57;1.42;;;20.60;99.90;;;;;;6300844;22;20011;-83
2023/07/19 10:58:24;;;;;;;3.63;1.33;;;20.70;99.90;;;;;;6301165;22;20007;-82
2023/07/19 11:00:52;;;;;;;4.78;1.23;;;20.80;99.90;;;;;;6275537;22;20442;-83
2023/07/19 11:03:22;;;;;;;4.32;1.30;;;21.00;99.90;;;;;;6275549;22;20019;-83
2023/07/19 11:05:50;;;;;;;4.28;1.17;;;21.20;99.90;;;;;;6274582;22;20054;-85
2023/07/19 11:08:23;;;;;;;6.25;1.10;;;21.40;99.90;;;;;;6249612;22;20011;-84
2023/07/19 11:10:50;;;;;;;4.40;0.95;;;21.60;99.90;;;;;;6303406;22;20019;-84
2023/07/19 11:13:21;;;;;;;3.15;1.00;;;21.80;99.90;;;;;;6274760;22;20011;-85
2023/07/19 11:15:49;;;;;;;3.08;1.10;;;21.90;99.90;;;;;;6275832;22;20114;-84
2023/07/19 11:18:24;;;;;;;4.30;0.90;;;21.80;99.90;;;;;;6248782;22;20208;-84
2023/07/19 11:20:57;;;;;;;4.63;1.00;;;21.80;99.90;;;;;;6303290;22;20015;-85
2023/07/19 11:23:23;;;;;;;2.78;1.05;;;21.70;99.90;;;;;;6275038;22;20022;-85
2023/07/19 11:25:49;;;;;;;3.70;0.90;;;21.60;99.90;;;;;;6303323;22;20019;-85
2023/07/19 11:28:41;;;;;;;4.28;1.00;;;21.60;99.90;;;;;;6275521;22;20383;-84
2023/07/19 11:31:08;;;;;;;4.32;1.42;;;21.50;99.90;;;;;;6274869;22;20050;-85
2023/07/19 11:33:34;;;;;;;4.72;1.27;;;21.40;99.90;;;;;;6274925;22;20493;-85
2023/07/19 11:36:04;;;;;;;4.68;1.17;;;21.30;99.90;;;;;;6274546;22;20011;-85
2023/07/19 11:38:33;;;;;;;4.30;1.45;;;21.20;99.90;;;;;;6276035;22;20019;-84
2023/07/19 11:40:59;;;;;;;3.78;0.82;;;21.10;99.90;;;;;;6274182;22;20098;-84
2023/07/19 11:43:25;;;;;;;9.63;1.38;;;21.20;99.90;;;;;;6302579;22;20049;-85
2023/07/19 11:45:51;;;;;;;62.72;7.35;;;21.50;99.90;;;;;;6274700;22;20473;-85
2023/07/19 11:48:17;;;;;;;8.50;1.77;;;21.70;99.90;;;;;;6249184;22;20011;-84
2023/07/19 11:50:43;;;;;;;14.02;2.08;;;21.70;99.90;;;;;;6249875;22;20097;-87
2023/07/19 11:53:09;;;;;;;13.95;1.73;;;21.80;99.90;;;;;;6248514;22;20023;-87
2023/07/19 11:55:35;;;;;;;6.45;1.05;;;21.80;99.90;;;;;;6275033;22;20022;-87
2023/07/19 11:58:03;;;;;;;6.60;0.90;;;21.80;99.90;;;;;;6302002;22;20015;-86
2023/07/19 12:00:31;;;;;;;6.50;1.00;;;21.80;99.90;;;;;;6250566;22;20011;-86
2023/07/19 12:02:57;;;;;;;3.50;0.88;;;21.80;99.90;;;;;;6275170;22;20542;-87
2023/07/19 12:05:25;;;;;;;4.13;0.85;;;21.90;99.90;;;;;;6275789;22;20022;-85
2023/07/19 12:07:51;;;;;;;5.32;0.85;;;21.90;99.90;;;;;;6249681;22;20433;-86
2023/07/19 12:10:19;;;;;;;3.75;0.60;;;22.20;99.90;;;;;;6303108;22;20015;-85
2023/07/19 12:12:47;;;;;;;3.33;0.90;;;22.30;99.90;;;;;;6275473;22;20011;-85
2023/07/19 12:15:13;;;;;;;3.38;0.70;;;22.50;99.90;;;;;;6275855;22;20086;-87
2023/07/19 12:17:39;;;;;;;7.13;0.90;;;22.50;99.90;;;;;;6277089;22;20053;-91
2023/07/19 12:20:06;;;;;;;3.38;0.82;;;22.50;99.90;;;;;;6276233;22;20011;-92
2023/07/19 12:22:34;;;;;;;5.22;0.80;;;22.50;99.90;;;;;;6304510;22;20026;-88
2023/07/19 12:25:00;;;;;;;4.15;1.10;;;22.60;99.90;;;;;;6278796;22;20076;-84
2023/07/19 12:27:26;;;;;;;3.08;0.60;;;22.50;99.90;;;;;;6303832;22;20474;-88
2023/07/19 12:29:52;;;;;;;3.42;0.80;;;22.40;99.90;;;;;;6276230;22;20015;-85
2023/07/19 12:32:18;;;;;;;4.28;0.93;;;22.40;99.90;;;;;;6304546;22;20035;-90
2023/07/19 12:34:46;;;;;;;5.38;0.93;;;22.30;99.90;;;;;;6276992;22;20031;-89
2023/07/19 12:37:13;;;;;;;2.65;0.70;;;22.20;99.90;;;;;;6250558;22;20011;-88
2023/07/19 12:39:40;;;;;;;3.80;0.80;;;22.10;99.90;;;;;;6276565;22;20449;-91
2023/07/19 12:42:06;;;;;;;2.65;0.70;;;22.00;99.90;;;;;;6276043;22;20484;-87
2023/07/19 12:44:33;;;;;;;3.70;0.82;;;21.90;99.90;;;;;;6274936;22;20030;-91